Time;durP1;ratioP1;P1;durP2;ratioP2;P2;SDS_P1;SDS_P2;PMS_P1;PMS_P2;Temp;Humidity;BMP_temperature;BMP_pressure;BME280_temperature;BME280_humidity;BME280_pressure;Samples;Min_cycle;Max_cycle;Signal;HPM_P1;HPM_P2
2021/12/29 00:01:29;;;;;;;;;;;;;;;;;;5044435;28;19960;-76
2021/12/29 00:03:55;;;;;;;;;;;;;;;;;;5055179;28;19931;-76
2021/12/29 00:06:21;;;;;;;;;;;;;;;;;;5057175;28;19943;-76
2021/12/29 00:08:47;;;;;;;;;;;;;;;;;;5058623;28;19913;-75
2021/12/29 00:11:13;;;;;;;;;;;;;;;;;;5050731;28;20043;-76
2021/12/29 00:13:39;;;;;;;;;;;;;;;;;;5035813;28;19913;-76
2021/12/29 00:16:04;;;;;;;;;;;;;;;;;;5039884;28;19920;-76
2021/12/29 00:18:30;;;;;;;;;;;;;;;;;;5057459;28;19924;-76
2021/12/29 00:20:56;;;;;;;;;;;;;;;;;;5037652;28;19919;-76
2021/12/29 00:23:22;;;;;;;;;;;;;;;;;;5048255;28;20304;-76
2021/12/29 00:25:48;;;;;;;;;;;;;;;;;;5056883;28;20004;-76
2021/12/29 00:28:14;;;;;;;;;;;;;;;;;;5059971;28;19920;-76
2021/12/29 00:30:40;;;;;;;;;;;;;;;;;;5050915;28;19922;-76
2021/12/29 00:33:05;;;;;;;;;;;;;;;;;;5050136;28;19929;-76
2021/12/29 00:35:34;;;;;;;;;;;;;;;;;;5037151;28;19920;-76
2021/12/29 00:38:02;;;;;;;;;;;;;;;;;;5041556;28;19913;-76
2021/12/29 00:40:28;;;;;;;;;;;;;;;;;;5056495;28;19913;-76
2021/12/29 00:42:54;;;;;;;;;;;;;;;;;;5038106;28;19913;-76
2021/12/29 00:45:20;;;;;;;;;;;;;;;;;;5043293;28;19920;-75
2021/12/29 00:47:46;;;;;;;;;;;;;;;;;;5033799;28;19921;-76
2021/12/29 00:50:16;;;;;;;;;;;;;;;;;;5039103;28;20620;-76
2021/12/29 00:52:42;;;;;;;;;;;;;;;;;;5053967;28;19939;-76
2021/12/29 00:55:08;;;;;;;;;;;;;;;;;;5034258;28;19913;-76
2021/12/29 00:57:33;;;;;;;;;;;;;;;;;;5044034;28;19913;-76
2021/12/29 01:00:00;;;;;;;;;;;;;;;;;;5048753;28;19913;-76
2021/12/29 01:02:25;;;;;;;;;;;;;;;;;;5051164;28;20587;-75
2021/12/29 01:04:51;;;;;;;;;;;;;;;;;;5057763;28;19916;-76
2021/12/29 01:07:17;;;;;;;;;;;;;;;;;;5048595;28;20292;-75
2021/12/29 01:09:44;;;;;;;;;;;;;;;;;;5043269;28;19920;-76
2021/12/29 01:12:10;;;;;;;;;;;;;;;;;;5041583;28;20187;-76
2021/12/29 01:14:41;;;;;;;;;;;;;;;;;;5056160;28;19912;-76
2021/12/29 01:17:06;;;;;;;;;;;;;;;;;;5055012;28;19967;-75
2021/12/29 01:19:32;;;;;;;;;;;;;;;;;;5051228;28;19940;-76
2021/12/29 01:21:58;;;;;;;;;;;;;;;;;;5037323;28;19913;-76
2021/12/29 01:24:26;;;;;;;;;;;;;;;;;;5051496;28;19967;-76
2021/12/29 01:26:52;;;;;;;;;;;;;;;;;;5039707;28;19921;-75
2021/12/29 01:29:18;;;;;;;;;;;;;;;;;;5039252;28;20426;-76
2021/12/29 01:31:44;;;;;;;;;;;;;;;;;;5053542;28;19954;-75
2021/12/29 01:34:10;;;;;;;;;;;;;;;;;;5043657;28;19913;-76
2021/12/29 01:36:36;;;;;;;;;;;;;;;;;;5052612;28;20342;-76
2021/12/29 01:39:02;;;;;;;;;;;;;;;;;;5035555;28;19917;-76
2021/12/29 01:41:27;;;;;;;;;;;;;;;;;;5030983;28;19967;-75
2021/12/29 01:43:53;;;;;;;;;;;;;;;;;;5036124;28;19917;-76
2021/12/29 01:46:20;;;;;;;;;;;;;;;;;;5034490;28;19917;-75
2021/12/29 01:48:45;;;;;;;;;;;;;;;;;;5032718;28;19913;-75
2021/12/29 01:51:13;;;;;;;;;;;;;;;;;;5037036;28;19924;-76
2021/12/29 01:53:47;;;;;;;;;;;;;;;;;;5052794;28;20712;-76
2021/12/29 01:56:13;;;;;;;;;;;;;;;;;;5055184;28;19997;-75
2021/12/29 01:58:38;;;;;;;;;;;;;;;;;;5039489;28;20000;-75
2021/12/29 02:01:04;;;;;;;;;;;;;;;;;;5034371;28;20265;-76
2021/12/29 02:03:30;;;;;;;;;;;;;;;;;;5045214;28;19961;-76
2021/12/29 02:05:56;;;;;;;;;;;;;;;;;;5031220;28;19917;-75
2021/12/29 02:08:23;;;;;;;;;;;;;;;;;;5037968;28;20053;-75
2021/12/29 02:10:49;;;;;;;;;;;;;;;;;;5036522;28;19920;-76
2021/12/29 02:13:15;;;;;;;;;;;;;;;;;;5032038;28;19912;-76
2021/12/29 02:15:41;;;;;;;;;;;;;;;;;;5037031;28;19921;-75
2021/12/29 02:18:13;;;;;;;;;;;;;;;;;;5036547;28;19920;-75
2021/12/29 02:20:39;;;;;;;;;;;;;;;;;;5034173;28;19916;-75
2021/12/29 02:23:18;;;;;;;;;;;;;;;;;;5046875;28;20349;-76
2021/12/29 02:25:48;;;;;;;;;;;;;;;;;;5034592;28;19928;-75
2021/12/29 02:28:14;;;;;;;;;;;;;;;;;;5034633;28;20039;-76
2021/12/29 02:30:40;;;;;;;;;;;;;;;;;;5012585;28;20214;-76
2021/12/29 02:33:07;;;;;;;;;;;;;;;;;;5013002;28;19948;-76
2021/12/29 02:35:33;;;;;;;;;;;;;;;;;;5015638;28;20055;-76
2021/12/29 02:38:00;;;;;;;;;;;;;;;;;;5011460;28;20028;-76
2021/12/29 02:40:26;;;;;;;;;;;;;;;;;;5032001;28;19920;-75
2021/12/29 02:42:52;;;;;;;;;;;;;;;;;;5033856;28;19913;-76
2021/12/29 02:45:19;;;;;;;;;;;;;;;;;;5028110;28;19913;-76
2021/12/29 02:47:45;;;;;;;;;;;;;;;;;;5029798;28;19917;-76
2021/12/29 02:50:14;;;;;;;;;;;;;;;;;;5028086;28;19920;-75
2021/12/29 02:52:41;;;;;;;;;;;;;;;;;;5017009;28;20392;-76
2021/12/29 02:55:07;;;;;;;;;;;;;;;;;;5010146;28;19913;-75
2021/12/29 02:57:32;;;;;;;;;;;;;;;;;;5031418;28;20391;-75
2021/12/29 02:59:58;;;;;;;;;;;;;;;;;;5026923;28;19921;-76
2021/12/29 03:02:24;;;;;;;;;;;;;;;;;;5027179;28;20015;-75
2021/12/29 03:04:50;;;;;;;;;;;;;;;;;;5031424;28;19940;-76
2021/12/29 03:07:16;;;;;;;;;;;;;;;;;;5030884;28;20008;-75
2021/12/29 03:09:54;;;;;;;;;;;;;;;;;;5030128;28;19959;-76
2021/12/29 03:12:19;;;;;;;;;;;;;;;;;;5027457;28;19971;-76
2021/12/29 03:14:45;;;;;;;;;;;;;;;;;;5029899;28;19917;-76
2021/12/29 03:17:11;;;;;;;;;;;;;;;;;;5030567;28;19913;-75
2021/12/29 03:19:37;;;;;;;;;;;;;;;;;;5029936;28;20445;-76
2021/12/29 03:22:03;;;;;;;;;;;;;;;;;;5013890;28;19967;-75
2021/12/29 03:24:29;;;;;;;;;;;;;;;;;;5030586;28;19956;-75
2021/12/29 03:26:55;;;;;;;;;;;;;;;;;;5035905;28;19970;-76
2021/12/29 03:29:20;;;;;;;;;;;;;;;;;;5041170;28;20530;-76
2021/12/29 03:31:46;;;;;;;;;;;;;;;;;;5057382;28;19987;-76
2021/12/29 03:34:15;;;;;;;;;;;;;;;;;;5052195;28;19920;-75
2021/12/29 03:36:41;;;;;;;;;;;;;;;;;;5055211;28;19928;-75
2021/12/29 03:39:07;;;;;;;;;;;;;;;;;;5053856;28;19917;-75
2021/12/29 03:41:33;;;;;;;;;;;;;;;;;;5063037;28;19919;-75
2021/12/29 03:44:01;;;;;;;;;;;;;;;;;;5052552;28;19913;-75
2021/12/29 03:46:27;;;;;;;;;;;;;;;;;;5036356;28;19928;-75
2021/12/29 03:48:53;;;;;;;;;;;;;;;;;;5048273;28;19917;-75
2021/12/29 03:51:19;;;;;;;;;;;;;;;;;;5025375;28;19913;-75
2021/12/29 03:53:45;;;;;;;;;;;;;;;;;;5054962;28;19967;-75
2021/12/29 03:56:11;;;;;;;;;;;;;;;;;;5056730;28;19916;-75
2021/12/29 03:58:37;;;;;;;;;;;;;;;;;;5034171;28;20032;-76
2021/12/29 04:01:02;;;;;;;;;;;;;;;;;;5057043;28;19920;-75
2021/12/29 04:03:28;;;;;;;;;;;;;;;;;;5057046;28;19913;-75
2021/12/29 04:05:54;;;;;;;;;;;;;;;;;;5054789;28;19917;-76
2021/12/29 04:08:20;;;;;;;;;;;;;;;;;;5059020;28;19916;-75
2021/12/29 04:10:46;;;;;;;;;;;;;;;;;;5058633;28;19958;-75
2021/12/29 04:13:12;;;;;;;;;;;;;;;;;;5059885;28;19917;-76
2021/12/29 04:15:38;;;;;;;;;;;;;;;;;;5061079;28;20000;-76
2021/12/29 04:18:14;;;;;;;;;;;;;;;;;;5055219;28;19925;-76
2021/12/29 04:23:25;;;;;;;;;;;;;;;;;;5058633;28;19958;-76
2021/12/29 04:25:53;;;;;;;;;;;;;;;;;;5050252;28;19925;-75
2021/12/29 04:28:23;;;;;;;;;;;;;;;;;;5057005;28;20345;-75
2021/12/29 04:30:49;;;;;;;;;;;;;;;;;;5037548;28;19913;-75
2021/12/29 04:33:14;;;;;;;;;;;;;;;;;;5057207;28;20426;-75
2021/12/29 04:35:40;;;;;;;;;;;;;;;;;;5032241;28;19917;-75
2021/12/29 04:38:06;;;;;;;;;;;;;;;;;;5055355;28;19967;-76
2021/12/29 04:40:32;;;;;;;;;;;;;;;;;;5047829;28;19917;-75
2021/12/29 04:42:58;;;;;;;;;;;;;;;;;;5040721;28;19995;-76
2021/12/29 04:45:24;;;;;;;;;;;;;;;;;;5035248;28;19956;-76
2021/12/29 04:47:50;;;;;;;;;;;;;;;;;;5047453;28;20468;-75
2021/12/29 04:50:37;;;;;;;;;;;;;;;;;;5027728;28;19912;-75
2021/12/29 04:53:04;;;;;;;;;;;;;;;;;;5051356;28;20410;-75
2021/12/29 04:55:30;;;;;;;;;;;;;;;;;;5037641;28;19982;-76
2021/12/29 04:57:56;;;;;;;;;;;;;;;;;;5050472;28;19980;-75
2021/12/29 05:00:24;;;;;;;;;;;;;;;;;;5051394;28;19920;-75
2021/12/29 05:02:49;;;;;;;;;;;;;;;;;;5033692;28;19912;-75
2021/12/29 05:05:38;;;;;;;;;;;;;;;;;;5033599;28;20457;-76
2021/12/29 05:10:50;;;;;;;;;;;;;;;;;;5052354;28;19924;-75
2021/12/29 05:13:16;;;;;;;;;;;;;;;;;;5048057;28;19913;-75
2021/12/29 05:15:42;;;;;;;;;;;;;;;;;;5049639;28;19940;-75
2021/12/29 05:18:08;;;;;;;;;;;;;;;;;;5048796;28;19921;-75
2021/12/29 05:20:34;;;;;;;;;;;;;;;;;;5051991;28;20375;-75
2021/12/29 05:23:01;;;;;;;;;;;;;;;;;;5034725;28;19917;-76
2021/12/29 05:25:27;;;;;;;;;;;;;;;;;;5042111;28;20015;-75
2021/12/29 05:27:53;;;;;;;;;;;;;;;;;;5047516;28;20656;-75
2021/12/29 05:30:19;;;;;;;;;;;;;;;;;;5052031;28;19943;-75
2021/12/29 05:32:45;;;;;;;;;;;;;;;;;;5026777;28;19920;-76
2021/12/29 05:35:10;;;;;;;;;;;;;;;;;;5048340;28;19916;-75
2021/12/29 05:37:36;;;;;;;;;;;;;;;;;;5037876;28;19912;-75
2021/12/29 05:40:02;;;;;;;;;;;;;;;;;;5047427;28;19913;-75
2021/12/29 05:42:29;;;;;;;;;;;;;;;;;;5050336;28;20336;-75
2021/12/29 05:44:55;;;;;;;;;;;;;;;;;;5041342;28;19912;-75
2021/12/29 05:47:21;;;;;;;;;;;;;;;;;;5035793;28;20587;-75
2021/12/29 05:49:47;;;;;;;;;;;;;;;;;;5038847;28;19913;-75
2021/12/29 05:52:15;;;;;;;;;;;;;;;;;;5051298;28;19931;-76
2021/12/29 05:54:41;;;;;;;;;;;;;;;;;;5056248;28;19948;-76
2021/12/29 05:57:07;;;;;;;;;;;;;;;;;;5034732;28;19963;-75
2021/12/29 05:59:33;;;;;;;;;;;;;;;;;;5050578;28;20548;-75
2021/12/29 06:01:59;;;;;;;;;;;;;;;;;;5031530;28;19925;-76
2021/12/29 06:04:25;;;;;;;;;;;;;;;;;;5031258;28;19919;-76
2021/12/29 06:06:50;;;;;;;;;;;;;;;;;;5032163;28;19925;-76
2021/12/29 06:09:17;;;;;;;;;;;;;;;;;;5050919;28;19913;-75
2021/12/29 06:11:42;;;;;;;;;;;;;;;;;;5050890;28;19922;-76
2021/12/29 06:14:08;;;;;;;;;;;;;;;;;;5030175;28;19913;-75
2021/12/29 06:16:34;;;;;;;;;;;;;;;;;;5030833;28;19921;-75
2021/12/29 06:19:00;;;;;;;;;;;;;;;;;;5051744;28;19974;-75
2021/12/29 06:21:26;;;;;;;;;;;;;;;;;;5047270;28;19916;-75
2021/12/29 06:23:52;;;;;;;;;;;;;;;;;;5048222;28;20467;-75
2021/12/29 06:26:18;;;;;;;;;;;;;;;;;;5051360;28;19921;-75
2021/12/29 06:28:44;;;;;;;;;;;;;;;;;;5051274;28;19940;-76
2021/12/29 06:31:10;;;;;;;;;;;;;;;;;;5046520;28;20765;-76
2021/12/29 06:33:36;;;;;;;;;;;;;;;;;;5034705;28;19977;-75
2021/12/29 06:36:01;;;;;;;;;;;;;;;;;;5027768;28;20372;-75
2021/12/29 06:38:27;;;;;;;;;;;;;;;;;;5049484;28;19916;-75
2021/12/29 06:40:53;;;;;;;;;;;;;;;;;;5049415;28;19920;-75
2021/12/29 06:43:19;;;;;;;;;;;;;;;;;;5050573;28;19916;-76
2021/12/29 06:45:45;;;;;;;;;;;;;;;;;;5051341;28;20613;-75
2021/12/29 06:48:11;;;;;;;;;;;;;;;;;;5045199;28;19929;-76
2021/12/29 06:50:37;;;;;;;;;;;;;;;;;;5031742;28;19944;-76
2021/12/29 06:53:02;;;;;;;;;;;;;;;;;;5041034;28;19959;-76
2021/12/29 06:55:28;;;;;;;;;;;;;;;;;;5051785;28;20337;-76
2021/12/29 06:57:54;;;;;;;;;;;;;;;;;;5049178;28;19913;-73
2021/12/29 07:00:20;;;;;;;;;;;;;;;;;;5055185;28;19916;-75
2021/12/29 07:02:46;;;;;;;;;;;;;;;;;;5034076;28;19912;-75
2021/12/29 07:05:12;;;;;;;;;;;;;;;;;;5048743;28;21622;-76
2021/12/29 07:07:38;;;;;;;;;;;;;;;;;;5051679;28;19928;-75
2021/12/29 07:10:04;;;;;;;;;;;;;;;;;;5032792;28;20993;-75
2021/12/29 07:12:29;;;;;;;;;;;;;;;;;;5024927;28;19921;-76
2021/12/29 07:14:55;;;;;;;;;;;;;;;;;;5046735;28;19959;-75
2021/12/29 07:17:21;;;;;;;;;;;;;;;;;;5047504;28;19942;-75
2021/12/29 07:19:47;;;;;;;;;;;;;;;;;;5050993;28;20050;-75
2021/12/29 07:22:13;;;;;;;;;;;;;;;;;;5044339;28;19913;-75
2021/12/29 07:24:39;;;;;;;;;;;;;;;;;;5037844;28;20574;-76
2021/12/29 07:27:05;;;;;;;;;;;;;;;;;;5037990;28;19916;-75
2021/12/29 07:29:31;;;;;;;;;;;;;;;;;;5051153;28;19917;-75
2021/12/29 07:32:03;;;;;;;;;;;;;;;;;;5045784;28;20066;-75
2021/12/29 07:34:29;;;;;;;;;;;;;;;;;;5053837;28;20352;-75
2021/12/29 07:36:54;;;;;;;;;;;;;;;;;;5047799;28;19920;-75
2021/12/29 07:39:20;;;;;;;;;;;;;;;;;;5054594;28;20012;-75
2021/12/29 07:41:46;;;;;;;;;;;;;;;;;;5033636;28;19916;-75
2021/12/29 07:44:17;;;;;;;;;;;;;;;;;;5042527;28;20436;-75
2021/12/29 07:46:44;;;;;;;;;;;;;;;;;;5039216;28;19921;-75
2021/12/29 07:49:10;;;;;;;;;;;;;;;;;;5038418;28;20003;-75
2021/12/29 07:51:36;;;;;;;;;;;;;;;;;;5055243;28;20531;-75
2021/12/29 07:54:02;;;;;;;;;;;;;;;;;;5052743;28;19920;-75
2021/12/29 07:56:28;;;;;;;;;;;;;;;;;;5033644;28;19956;-75
2021/12/29 07:58:54;;;;;;;;;;;;;;;;;;5051626;28;19956;-75
2021/12/29 08:01:19;;;;;;;;;;;;;;;;;;5048264;28;20414;-75
2021/12/29 08:03:45;;;;;;;;;;;;;;;;;;5052129;28;20372;-75
2021/12/29 08:06:11;;;;;;;;;;;;;;;;;;5045246;28;19956;-75
2021/12/29 08:08:37;;;;;;;;;;;;;;;;;;5032736;28;19923;-75
2021/12/29 08:11:03;;;;;;;;;;;;;;;;;;5053012;28;20738;-75
2021/12/29 08:13:29;;;;;;;;;;;;;;;;;;5052651;28;19913;-75
2021/12/29 08:15:55;;;;;;;;;;;;;;;;;;5048965;28;19913;-75
2021/12/29 08:18:20;;;;;;;;;;;;;;;;;;5049012;28;19986;-75
2021/12/29 08:20:46;;;;;;;;;;;;;;;;;;5048329;28;20003;-75
2021/12/29 08:23:12;;;;;;;;;;;;;;;;;;5046298;28;19967;-75
2021/12/29 08:25:38;;;;;;;;;;;;;;;;;;5048271;28;19975;-76
2021/12/29 08:28:04;;;;;;;;;;;;;;;;;;5032748;28;20612;-75
2021/12/29 08:30:30;;;;;;;;;;;;;;;;;;5050372;28;19920;-75
2021/12/29 08:32:56;;;;;;;;;;;;;;;;;;5033463;28;19917;-75
2021/12/29 08:35:22;;;;;;;;;;;;;;;;;;5032096;28;20364;-75
2021/12/29 08:37:47;;;;;;;;;;;;;;;;;;5052598;28;19958;-76
2021/12/29 08:40:14;;;;;;;;;;;;;;;;;;5046735;28;19912;-75
2021/12/29 08:42:39;;;;;;;;;;;;;;;;;;5047392;28;19991;-75
2021/12/29 08:45:05;;;;;;;;;;;;;;;;;;5048219;28;20010;-75
2021/12/29 08:47:31;;;;;;;;;;;;;;;;;;5051957;28;20373;-75
2021/12/29 08:49:57;;;;;;;;;;;;;;;;;;5025352;28;19913;-75
2021/12/29 08:52:23;;;;;;;;;;;;;;;;;;5046766;28;19993;-75
2021/12/29 08:54:49;;;;;;;;;;;;;;;;;;5036064;28;19919;-76
2021/12/29 08:57:15;;;;;;;;;;;;;;;;;;5031525;28;19923;-75
2021/12/29 08:59:41;;;;;;;;;;;;;;;;;;5036072;28;20602;-75
2021/12/29 09:02:06;;;;;;;;;;;;;;;;;;5031557;28;19921;-75
2021/12/29 09:04:32;;;;;;;;;;;;;;;;;;5032748;28;19913;-75
2021/12/29 09:06:58;;;;;;;;;;;;;;;;;;5049344;28;19924;-74
2021/12/29 09:09:24;;;;;;;;;;;;;;;;;;5036371;28;19966;-74
2021/12/29 09:11:50;;;;;;;;;;;;;;;;;;5037071;28;19924;-75
2021/12/29 09:14:16;;;;;;;;;;;;;;;;;;5052070;28;19913;-74
2021/12/29 09:16:43;;;;;;;;;;;;;;;;;;5053777;28;19919;-75
2021/12/29 09:19:12;;;;;;;;;;;;;;;;;;5050894;28;19913;-75
2021/12/29 09:21:39;;;;;;;;;;;;;;;;;;5049857;28;19913;-75
2021/12/29 09:24:04;;;;;;;;;;;;;;;;;;5055156;28;20011;-75
2021/12/29 09:26:30;;;;;;;;;;;;;;;;;;5036648;28;20054;-75
2021/12/29 09:28:56;;;;;;;;;;;;;;;;;;5043276;28;19913;-75
2021/12/29 09:31:23;;;;;;;;;;;;;;;;;;5039278;28;19969;-75
2021/12/29 09:33:48;;;;;;;;;;;;;;;;;;5050083;28;20377;-75
2021/12/29 09:36:15;;;;;;;;;;;;;;;;;;5048076;28;19913;-75
2021/12/29 09:38:41;;;;;;;;;;;;;;;;;;5050690;28;19916;-75
2021/12/29 09:41:07;;;;;;;;;;;;;;;;;;5051529;28;19920;-74
2021/12/29 09:43:32;;;;;;;;;;;;;;;;;;5053724;28;20379;-75
2021/12/29 09:45:59;;;;;;;;;;;;;;;;;;5050805;28;19917;-75
2021/12/29 09:48:24;;;;;;;;;;;;;;;;;;5040835;28;19990;-75
2021/12/29 09:50:51;;;;;;;;;;;;;;;;;;5031979;28;19996;-74
2021/12/29 09:53:16;;;;;;;;;;;;;;;;;;5054454;28;20338;-75
2021/12/29 09:55:44;;;;;;;;;;;;;;;;;;5040571;28;19966;-75
2021/12/29 09:58:10;;;;;;;;;;;;;;;;;;5053561;28;19913;-75
2021/12/29 10:00:36;;;;;;;;;;;;;;;;;;5047697;28;19944;-75
2021/12/29 10:03:02;;;;;;;;;;;;;;;;;;5036461;28;19955;-75
2021/12/29 10:05:28;;;;;;;;;;;;;;;;;;5053571;28;19920;-75
2021/12/29 10:07:54;;;;;;;;;;;;;;;;;;5053964;28;19913;-74
2021/12/29 10:10:19;;;;;;;;;;;;;;;;;;5032966;28;20407;-75
2021/12/29 10:12:45;;;;;;;;;;;;;;;;;;5031225;28;19913;-74
2021/12/29 10:15:11;;;;;;;;;;;;;;;;;;5053388;28;19967;-74
2021/12/29 10:17:37;;;;;;;;;;;;;;;;;;5055853;28;19969;-74
2021/12/29 10:20:03;;;;;;;;;;;;;;;;;;5048306;28;20811;-75
2021/12/29 10:22:29;;;;;;;;;;;;;;;;;;5049203;28;20059;-74
2021/12/29 10:24:55;;;;;;;;;;;;;;;;;;5051012;28;20485;-74
2021/12/29 10:27:23;;;;;;;;;;;;;;;;;;5034369;28;19920;-75
2021/12/29 10:29:49;;;;;;;;;;;;;;;;;;5046687;28;20455;-74
2021/12/29 10:32:15;;;;;;;;;;;;;;;;;;5037755;28;20019;-74
2021/12/29 10:34:40;;;;;;;;;;;;;;;;;;5044243;28;19917;-74
2021/12/29 10:37:07;;;;;;;;;;;;;;;;;;5039537;28;19913;-73
2021/12/29 10:39:32;;;;;;;;;;;;;;;;;;5048317;28;19912;-74
2021/12/29 10:41:58;;;;;;;;;;;;;;;;;;5052014;28;19917;-74
2021/12/29 10:44:24;;;;;;;;;;;;;;;;;;5044218;28;19927;-75
2021/12/29 10:46:52;;;;;;;;;;;;;;;;;;5043891;28;19996;-75
2021/12/29 10:49:18;;;;;;;;;;;;;;;;;;5032880;28;20000;-75
2021/12/29 10:51:46;;;;;;;;;;;;;;;;;;5039413;28;20012;-74
2021/12/29 10:54:12;;;;;;;;;;;;;;;;;;5049305;28;19966;-75
2021/12/29 10:56:38;;;;;;;;;;;;;;;;;;5032376;28;20545;-75
2021/12/29 10:59:04;;;;;;;;;;;;;;;;;;5042934;28;19975;-74
2021/12/29 11:01:30;;;;;;;;;;;;;;;;;;5033381;28;19916;-74
2021/12/29 11:03:57;;;;;;;;;;;;;;;;;;5045626;28;19927;-75
2021/12/29 11:06:23;;;;;;;;;;;;;;;;;;5049250;28;19924;-75
2021/12/29 11:08:48;;;;;;;;;;;;;;;;;;5054186;28;19916;-74
2021/12/29 11:11:14;;;;;;;;;;;;;;;;;;5035707;28;19920;-74
2021/12/29 11:13:41;;;;;;;;;;;;;;;;;;5053228;28;19912;-75
2021/12/29 11:16:07;;;;;;;;;;;;;;;;;;5038442;28;19912;-74
2021/12/29 11:18:33;;;;;;;;;;;;;;;;;;5037085;28;19909;-75
2021/12/29 11:20:58;;;;;;;;;;;;;;;;;;5053177;28;20399;-74
2021/12/29 11:23:24;;;;;;;;;;;;;;;;;;5032994;28;19912;-75
2021/12/29 11:25:50;;;;;;;;;;;;;;;;;;5047899;28;19921;-75
2021/12/29 11:28:16;;;;;;;;;;;;;;;;;;5047668;28;19913;-75
2021/12/29 11:30:42;;;;;;;;;;;;;;;;;;5036707;28;19919;-75
2021/12/29 11:33:09;;;;;;;;;;;;;;;;;;5036116;28;20004;-75
2021/12/29 11:35:35;;;;;;;;;;;;;;;;;;5052800;28;19912;-75
2021/12/29 11:38:01;;;;;;;;;;;;;;;;;;5049710;28;19917;-75
2021/12/29 11:40:27;;;;;;;;;;;;;;;;;;5039911;28;19913;-74
2021/12/29 11:42:53;;;;;;;;;;;;;;;;;;5063587;28;19919;-74
2021/12/29 11:45:19;;;;;;;;;;;;;;;;;;5052742;28;20313;-75
2021/12/29 11:47:45;;;;;;;;;;;;;;;;;;5075176;28;19967;-77
2021/12/29 11:50:11;;;;;;;;;;;;;;;;;;5038290;28;19913;-76
2021/12/29 11:52:36;;;;;;;;;;;;;;;;;;5036511;28;19912;-77
2021/12/29 11:55:03;;;;;;;;;;;;;;;;;;5054653;28;20374;-77
2021/12/29 11:57:28;;;;;;;;;;;;;;;;;;5054925;28;19916;-77
2021/12/29 11:59:54;;;;;;;;;;;;;;;;;;5054020;28;20344;-76
2021/12/29 12:02:20;;;;;;;;;;;;;;;;;;5050099;28;19924;-76
2021/12/29 12:04:46;;;;;;;;;;;;;;;;;;5051655;28;20579;-77
2021/12/29 12:07:14;;;;;;;;;;;;;;;;;;5034705;28;19916;-77
2021/12/29 12:09:40;;;;;;;;;;;;;;;;;;5031272;28;20015;-76
2021/12/29 12:12:05;;;;;;;;;;;;;;;;;;5050459;28;20016;-76
2021/12/29 12:14:31;;;;;;;;;;;;;;;;;;5053865;28;19923;-75
2021/12/29 12:16:57;;;;;;;;;;;;;;;;;;5051598;28;20910;-81
2021/12/29 12:19:23;;;;;;;;;;;;;;;;;;5034357;28;19912;-77
2021/12/29 12:21:49;;;;;;;;;;;;;;;;;;5034419;28;19916;-76
2021/12/29 12:24:15;;;;;;;;;;;;;;;;;;5053574;28;20004;-77
2021/12/29 12:26:41;;;;;;;;;;;;;;;;;;5053681;28;20011;-77
2021/12/29 12:29:07;;;;;;;;;;;;;;;;;;5045829;28;19916;-77
2021/12/29 12:31:33;;;;;;;;;;;;;;;;;;5060814;28;20326;-77
2021/12/29 12:33:59;;;;;;;;;;;;;;;;;;5051878;28;20016;-77
2021/12/29 12:36:25;;;;;;;;;;;;;;;;;;5053468;28;20387;-77
2021/12/29 12:38:52;;;;;;;;;;;;;;;;;;5053409;28;19917;-76
2021/12/29 12:41:18;;;;;;;;;;;;;;;;;;5053653;28;19913;-77
2021/12/29 12:43:44;;;;;;;;;;;;;;;;;;5053631;28;19916;-76
2021/12/29 12:46:11;;;;;;;;;;;;;;;;;;5053413;28;19913;-76
2021/12/29 12:48:36;;;;;;;;;;;;;;;;;;5053041;28;19963;-76
2021/12/29 12:51:02;;;;;;;;;;;;;;;;;;5034993;28;20529;-76
2021/12/29 12:53:28;;;;;;;;;;;;;;;;;;5053049;28;20015;-77
2021/12/29 12:55:56;;;;;;;;;;;;;;;;;;5053288;28;19916;-77
2021/12/29 12:58:22;;;;;;;;;;;;;;;;;;5052944;28;19920;-76
2021/12/29 13:00:48;;;;;;;;;;;;;;;;;;5052965;28;19915;-76
2021/12/29 13:03:14;;;;;;;;;;;;;;;;;;5051371;28;19909;-77
2021/12/29 13:05:40;;;;;;;;;;;;;;;;;;5052625;28;19908;-77
2021/12/29 13:08:06;;;;;;;;;;;;;;;;;;5052890;28;19935;-77
2021/12/29 13:10:32;;;;;;;;;;;;;;;;;;5053071;28;19916;-77
2021/12/29 13:12:59;;;;;;;;;;;;;;;;;;5052900;28;19909;-76
2021/12/29 13:15:25;;;;;;;;;;;;;;;;;;5052515;28;19980;-77
2021/12/29 13:17:51;;;;;;;;;;;;;;;;;;5053099;28;20558;-76
2021/12/29 13:20:17;;;;;;;;;;;;;;;;;;5034751;28;19915;-76
2021/12/29 13:22:43;;;;;;;;;;;;;;;;;;5052386;28;19920;-76
2021/12/29 13:25:08;;;;;;;;;;;;;;;;;;5034705;28;19924;-77
2021/12/29 13:27:34;;;;;;;;;;;;;;;;;;5052627;28;19912;-76
2021/12/29 13:30:00;;;;;;;;;;;;;;;;;;5040484;28;19959;-77
2021/12/29 13:32:26;;;;;;;;;;;;;;;;;;5051833;28;19919;-75
2021/12/29 13:34:52;;;;;;;;;;;;;;;;;;5049894;28;20468;-75
2021/12/29 13:37:19;;;;;;;;;;;;;;;;;;5029457;28;19912;-80
2021/12/29 13:39:44;;;;;;;;;;;;;;;;;;5048264;28;19912;-78
2021/12/29 13:42:11;;;;;;;;;;;;;;;;;;5027654;28;20436;-74
2021/12/29 13:44:42;;;;;;;;;;;;;;;;;;5022537;28;20291;-76
2021/12/29 13:47:08;;;;;;;;;;;;;;;;;;5048732;28;19925;-76
2021/12/29 13:49:33;;;;;;;;;;;;;;;;;;5033081;28;19913;-78
2021/12/29 13:51:59;;;;;;;;;;;;;;;;;;5052092;28;19909;-77
2021/12/29 13:54:27;;;;;;;;;;;;;;;;;;5051417;28;19913;-77
2021/12/29 13:56:55;;;;;;;;;;;;;;;;;;5034281;28;19913;-78
2021/12/29 13:59:21;;;;;;;;;;;;;;;;;;5052152;28;20028;-77
2021/12/29 14:01:47;;;;;;;;;;;;;;;;;;5051944;28;19909;-76
2021/12/29 14:04:13;;;;;;;;;;;;;;;;;;5050701;28;20004;-77
2021/12/29 14:06:39;;;;;;;;;;;;;;;;;;5051381;28;20004;-76
2021/12/29 14:09:05;;;;;;;;;;;;;;;;;;5050256;28;19909;-76
2021/12/29 14:11:31;;;;;;;;;;;;;;;;;;5034428;28;19913;-78
2021/12/29 14:13:57;;;;;;;;;;;;;;;;;;5030845;28;19909;-78
2021/12/29 14:16:23;;;;;;;;;;;;;;;;;;5048506;28;20525;-78
2021/12/29 14:18:53;;;;;;;;;;;;;;;;;;5033436;28;19916;-77
2021/12/29 14:21:19;;;;;;;;;;;;;;;;;;5033671;28;20256;-77
2021/12/29 14:23:45;;;;;;;;;;;;;;;;;;5051711;28;19917;-77
2021/12/29 14:26:11;;;;;;;;;;;;;;;;;;5051362;28;19935;-77
2021/12/29 14:28:37;;;;;;;;;;;;;;;;;;5031372;28;19917;-78
2021/12/29 14:31:04;;;;;;;;;;;;;;;;;;5050380;28;19944;-77
2021/12/29 14:33:29;;;;;;;;;;;;;;;;;;5050208;28;19955;-78
2021/12/29 14:35:55;;;;;;;;;;;;;;;;;;5049773;28;19917;-78
2021/12/29 14:38:21;;;;;;;;;;;;;;;;;;5033770;28;20016;-78
2021/12/29 14:40:47;;;;;;;;;;;;;;;;;;5032126;28;19913;-78
2021/12/29 14:43:13;;;;;;;;;;;;;;;;;;5034770;28;20318;-78
2021/12/29 14:45:39;;;;;;;;;;;;;;;;;;5028135;28;19917;-77
2021/12/29 14:48:05;;;;;;;;;;;;;;;;;;5048518;28;20483;-78
2021/12/29 14:50:32;;;;;;;;;;;;;;;;;;5052143;28;19917;-78
2021/12/29 14:52:58;;;;;;;;;;;;;;;;;;5035004;28;20481;-78
2021/12/29 14:55:23;;;;;;;;;;;;;;;;;;5051801;28;19909;-77
2021/12/29 14:57:50;;;;;;;;;;;;;;;;;;5050843;28;20431;-77
2021/12/29 15:00:16;;;;;;;;;;;;;;;;;;5033471;28;19915;-77
2021/12/29 15:02:42;;;;;;;;;;;;;;;;;;5049894;28;20818;-78
2021/12/29 15:05:08;;;;;;;;;;;;;;;;;;5033648;28;19917;-77
2021/12/29 15:07:34;;;;;;;;;;;;;;;;;;5051610;28;20446;-78
2021/12/29 15:10:00;;;;;;;;;;;;;;;;;;5047860;28;20733;-78
2021/12/29 15:12:26;;;;;;;;;;;;;;;;;;5031057;28;19909;-78
2021/12/29 15:14:52;;;;;;;;;;;;;;;;;;5043219;28;19936;-78
2021/12/29 15:17:17;;;;;;;;;;;;;;;;;;5033856;28;19909;-78
2021/12/29 15:19:43;;;;;;;;;;;;;;;;;;5032893;28;20633;-78
2021/12/29 15:22:09;;;;;;;;;;;;;;;;;;5050608;28;19909;-78
2021/12/29 15:24:35;;;;;;;;;;;;;;;;;;5030626;28;20459;-78
2021/12/29 15:27:01;;;;;;;;;;;;;;;;;;5049964;28;19932;-78
2021/12/29 15:29:29;;;;;;;;;;;;;;;;;;5033525;28;20055;-78
2021/12/29 15:31:55;;;;;;;;;;;;;;;;;;5033074;28;19916;-78
2021/12/29 15:34:23;;;;;;;;;;;;;;;;;;5049478;28;20641;-78
2021/12/29 15:36:53;;;;;;;;;;;;;;;;;;5033513;28;19913;-78
2021/12/29 15:39:19;;;;;;;;;;;;;;;;;;5050388;28;19909;-78
2021/12/29 15:41:45;;;;;;;;;;;;;;;;;;5033597;28;20027;-78
2021/12/29 15:44:11;;;;;;;;;;;;;;;;;;5050267;28;19917;-78
2021/12/29 15:46:36;;;;;;;;;;;;;;;;;;5050507;28;19966;-78
2021/12/29 15:49:02;;;;;;;;;;;;;;;;;;5051425;28;20644;-78
2021/12/29 15:51:29;;;;;;;;;;;;;;;;;;5046341;28;20407;-78
2021/12/29 15:53:55;;;;;;;;;;;;;;;;;;5041759;28;19913;-78
2021/12/29 15:56:20;;;;;;;;;;;;;;;;;;5051644;28;19916;-77
2021/12/29 15:58:46;;;;;;;;;;;;;;;;;;5063516;28;20374;-78
2021/12/29 16:01:12;;;;;;;;;;;;;;;;;;5054110;28;19917;-78
2021/12/29 16:03:38;;;;;;;;;;;;;;;;;;5053815;28;20339;-78
2021/12/29 16:06:04;;;;;;;;;;;;;;;;;;5055406;28;19968;-78
2021/12/29 16:08:30;;;;;;;;;;;;;;;;;;5035703;28;19912;-78
2021/12/29 16:10:56;;;;;;;;;;;;;;;;;;5038046;28;19920;-78
2021/12/29 16:13:22;;;;;;;;;;;;;;;;;;5036556;28;19912;-78
2021/12/29 16:15:47;;;;;;;;;;;;;;;;;;5036285;28;19909;-78
2021/12/29 16:18:13;;;;;;;;;;;;;;;;;;5058115;28;19913;-78
2021/12/29 16:20:39;;;;;;;;;;;;;;;;;;5035537;28;19913;-75
2021/12/29 16:23:05;;;;;;;;;;;;;;;;;;5053328;28;19913;-79
2021/12/29 16:25:33;;;;;;;;;;;;;;;;;;5031239;28;19963;-81
2021/12/29 16:27:59;;;;;;;;;;;;;;;;;;5054879;28;19925;-77
2021/12/29 16:30:25;;;;;;;;;;;;;;;;;;5035018;28;19922;-78
2021/12/29 16:32:51;;;;;;;;;;;;;;;;;;5038479;28;19917;-77
2021/12/29 16:35:17;;;;;;;;;;;;;;;;;;5047993;28;19979;-77
2021/12/29 16:37:43;;;;;;;;;;;;;;;;;;5049360;28;19967;-84
2021/12/29 16:40:09;;;;;;;;;;;;;;;;;;5050687;28;20008;-78
2021/12/29 16:42:35;;;;;;;;;;;;;;;;;;5036278;28;20007;-78
2021/12/29 16:45:01;;;;;;;;;;;;;;;;;;5036494;28;19917;-77